Time;durP1;ratioP1;P1;durP2;ratioP2;P2;SDS_P1;SDS_P2;PMS_P1;PMS_P2;Temp;Humidity;BMP_temperature;BMP_pressure;BME280_temperature;BME280_humidity;BME280_pressure;Samples;Min_cycle;Max_cycle;Signal;HPM_P1;HPM_P2
2022/12/29 00:00:51;;;;;;;19.45;7.60;;;;;;;;;;4941698;28;20034;-70
2022/12/29 00:03:17;;;;;;;16.17;6.60;;;;;;;;;;4924475;28;20196;-69
2022/12/29 00:05:42;;;;;;;20.63;5.82;;;;;;;;;;4941902;28;20378;-71
2022/12/29 00:08:08;;;;;;;16.70;7.75;;;;;;;;;;4941633;28;20493;-70
2022/12/29 00:10:33;;;;;;;15.05;5.63;;;;;;;;;;4941651;28;20155;-71
2022/12/29 00:15:42;;;;;;;17.17;6.75;;;;;;;;;;4926972;28;20066;-72
2022/12/29 00:18:08;;;;;;;22.45;7.07;;;;;;;;;;4941430;28;20132;-72
2022/12/29 00:37:10;;;;;;;30.35;11.07;;;;;;;;;;4943062;28;20053;-71
2022/12/29 00:45:05;;;;;;;23.00;10.50;;;;;;;;;;4941973;28;20035;-70
2022/12/29 00:47:34;;;;;;;20.80;8.70;;;;;;;;;;4940305;28;20117;-74
2022/12/29 00:50:00;;;;;;;30.10;9.35;;;;;;;;;;4941829;28;20027;-72
2022/12/29 00:52:25;;;;;;;35.40;11.85;;;;;;;;;;4940706;28;20152;-73
2022/12/29 00:54:50;;;;;;;49.47;11.20;;;;;;;;;;4942153;28;20122;-71
2022/12/29 00:57:15;;;;;;;56.60;12.85;;;;;;;;;;4941429;28;20130;-72
2022/12/29 00:59:45;;;;;;;33.00;8.43;;;;;;;;;;4942252;28;20053;-72
2022/12/29 01:02:10;;;;;;;43.75;10.95;;;;;;;;;;4942674;28;20035;-72
2022/12/29 01:04:36;;;;;;;36.17;10.15;;;;;;;;;;4942461;28;20035;-70
2022/12/29 01:07:01;;;;;;;27.70;8.63;;;;;;;;;;4942790;28;20039;-70
2022/12/29 01:12:10;;;;;;;14.65;5.22;;;;;;;;;;4930119;28;20287;-71
2022/12/29 01:14:36;;;;;;;21.48;4.95;;;;;;;;;;4942607;28;20026;-71
2022/12/29 01:17:01;;;;;;;18.75;3.50;;;;;;;;;;4941354;28;20030;-72
2022/12/29 01:19:27;;;;;;;18.90;3.80;;;;;;;;;;4941097;28;20404;-72
2022/12/29 01:21:54;;;;;;;21.20;4.25;;;;;;;;;;4923514;28;20441;-72
2022/12/29 01:24:20;;;;;;;13.43;3.60;;;;;;;;;;4942182;28;20342;-72
2022/12/29 01:26:46;;;;;;;17.55;4.00;;;;;;;;;;4941213;28;20376;-73
2022/12/29 01:29:12;;;;;;;18.98;4.47;;;;;;;;;;4940962;28;20080;-71
2022/12/29 01:31:38;;;;;;;38.25;7.05;;;;;;;;;;4923529;28;20030;-69
2022/12/29 01:34:08;;;;;;;32.90;6.32;;;;;;;;;;4941407;28;20498;-68
2022/12/29 01:36:36;;;;;;;49.03;6.38;;;;;;;;;;4940226;28;20033;-68
2022/12/29 01:39:03;;;;;;;35.03;6.18;;;;;;;;;;4940483;28;20035;-68
2022/12/29 01:41:28;;;;;;;28.33;4.65;;;;;;;;;;4924033;28;20563;-71
2022/12/29 01:43:59;;;;;;;30.35;4.85;;;;;;;;;;4938860;28;20108;-73
2022/12/29 01:46:30;;;;;;;35.38;5.05;;;;;;;;;;4939705;28;20065;-71
2022/12/29 01:49:15;;;;;;;40.75;5.47;;;;;;;;;;4940890;28;20058;-72
2022/12/29 01:52:06;;;;;;;27.60;4.43;;;;;;;;;;4941141;28;20106;-70
2022/12/29 01:54:36;;;;;;;30.52;5.15;;;;;;;;;;4931093;28;20297;-71
2022/12/29 01:57:03;;;;;;;38.78;4.85;;;;;;;;;;4936534;28;20074;-69
2022/12/29 01:59:34;;;;;;;33.35;4.75;;;;;;;;;;4922801;28;20059;-71
2022/12/29 02:02:00;;;;;;;33.80;6.07;;;;;;;;;;4922384;28;20131;-73
2022/12/29 02:04:28;;;;;;;34.42;5.00;;;;;;;;;;4922571;28;20255;-75
2022/12/29 02:06:59;;;;;;;46.50;6.72;;;;;;;;;;4936243;28;20035;-75
2022/12/29 02:09:24;;;;;;;39.70;4.80;;;;;;;;;;4922253;28;20142;-71
2022/12/29 02:11:55;;;;;;;32.85;5.30;;;;;;;;;;4923014;28;20115;-70
2022/12/29 02:14:20;;;;;;;42.75;5.40;;;;;;;;;;4942495;28;20362;-70
2022/12/29 02:17:07;;;;;;;31.55;5.50;;;;;;;;;;4943234;28;20047;-71
2022/12/29 02:19:56;;;;;;;38.47;5.35;;;;;;;;;;4942727;28;20426;-71
2022/12/29 02:22:40;;;;;;;34.28;5.25;;;;;;;;;;4939517;28;20035;-71
2022/12/29 02:25:14;;;;;;;29.23;5.10;;;;;;;;;;4942878;28;20142;-72
2022/12/29 02:27:39;;;;;;;32.08;4.85;;;;;;;;;;4939104;28;20035;-71
2022/12/29 02:30:07;;;;;;;29.15;5.00;;;;;;;;;;4924122;28;20300;-73
2022/12/29 02:32:38;;;;;;;31.58;4.97;;;;;;;;;;4942188;28;20424;-72
2022/12/29 02:35:24;;;;;;;31.75;4.78;;;;;;;;;;4942798;28;20107;-71
2022/12/29 02:38:01;;;;;;;29.05;4.97;;;;;;;;;;4942278;28;20433;-70
2022/12/29 02:40:42;;;;;;;32.38;4.63;;;;;;;;;;4923542;28;20532;-73
2022/12/29 02:43:29;;;;;;;26.70;4.80;;;;;;;;;;4942755;28;20513;-70
2022/12/29 02:45:56;;;;;;;39.08;4.97;;;;;;;;;;4941770;28;20038;-70
2022/12/29 02:48:29;;;;;;;37.53;4.72;;;;;;;;;;4939730;28;20054;-71
2022/12/29 02:50:58;;;;;;;34.10;5.93;;;;;;;;;;4939868;28;20054;-72
2022/12/29 02:56:08;;;;;;;33.83;5.10;;;;;;;;;;4939759;28;20382;-70
2022/12/29 02:58:35;;;;;;;32.10;5.28;;;;;;;;;;4939698;28;20035;-70
2022/12/29 03:01:22;;;;;;;29.73;5.28;;;;;;;;;;4940243;28;20127;-71
2022/12/29 03:03:54;;;;;;;38.78;6.57;;;;;;;;;;4939911;28;20199;-71
2022/12/29 03:06:30;;;;;;;44.90;5.93;;;;;;;;;;4939536;28;20108;-72
2022/12/29 03:09:04;;;;;;;42.92;6.68;;;;;;;;;;4940354;28;20122;-72
2022/12/29 03:17:45;;;;;;;50.55;6.72;;;;;;;;;;4940632;28;20047;-71
2022/12/29 03:20:16;;;;;;;48.05;7.15;;;;;;;;;;4947247;28;20549;-72
2022/12/29 03:22:43;;;;;;;49.15;6.80;;;;;;;;;;4939889;28;20471;-71
2022/12/29 03:25:10;;;;;;;45.35;6.80;;;;;;;;;;4921889;28;20035;-71
2022/12/29 03:27:37;;;;;;;49.17;6.80;;;;;;;;;;4922963;28;20062;-72
2022/12/29 03:30:04;;;;;;;44.90;6.50;;;;;;;;;;4939261;28;20039;-71
2022/12/29 03:32:34;;;;;;;53.47;7.72;;;;;;;;;;4940063;28;20050;-71
2022/12/29 03:35:00;;;;;;;54.58;7.47;;;;;;;;;;4939203;28;20070;-70
2022/12/29 03:37:31;;;;;;;43.70;7.20;;;;;;;;;;4939757;28;20035;-71
2022/12/29 03:39:56;;;;;;;45.67;7.22;;;;;;;;;;4942947;28;20038;-69
2022/12/29 03:42:26;;;;;;;56.35;7.30;;;;;;;;;;4943795;28;20033;-71
2022/12/29 03:44:53;;;;;;;57.28;7.88;;;;;;;;;;4926199;28;20031;-70
2022/12/29 03:47:20;;;;;;;55.47;8.15;;;;;;;;;;4942650;28;20073;-70
2022/12/29 03:49:46;;;;;;;51.65;7.90;;;;;;;;;;4942504;28;20038;-71
2022/12/29 03:52:12;;;;;;;58.83;7.68;;;;;;;;;;4942376;28;20070;-70
2022/12/29 03:54:37;;;;;;;57.97;7.55;;;;;;;;;;4941208;28;20568;-71
2022/12/29 03:57:04;;;;;;;46.63;6.85;;;;;;;;;;4942664;28;20035;-70
2022/12/29 03:59:30;;;;;;;47.75;6.50;;;;;;;;;;4924808;28;20499;-70
2022/12/29 04:01:55;;;;;;;46.83;7.60;;;;;;;;;;4942701;28;20031;-71
2022/12/29 04:04:21;;;;;;;48.15;7.00;;;;;;;;;;4924912;28;20968;-70
2022/12/29 04:06:46;;;;;;;43.88;6.82;;;;;;;;;;4942501;28;20051;-70
2022/12/29 04:09:12;;;;;;;43.80;7.13;;;;;;;;;;4924969;28;20031;-71
2022/12/29 04:11:39;;;;;;;43.85;6.57;;;;;;;;;;4942352;28;20591;-70
2022/12/29 04:14:05;;;;;;;35.83;5.30;;;;;;;;;;4910464;28;20682;-71
2022/12/29 04:16:30;;;;;;;44.22;6.00;;;;;;;;;;4906719;28;20209;-70
2022/12/29 04:18:55;;;;;;;40.63;5.53;;;;;;;;;;4906292;28;20027;-71
2022/12/29 04:21:20;;;;;;;35.53;5.45;;;;;;;;;;4906946;28;20039;-70
2022/12/29 04:23:46;;;;;;;40.60;6.50;;;;;;;;;;4923293;28;20232;-72
2022/12/29 04:26:14;;;;;;;30.50;5.25;;;;;;;;;;4906626;28;20034;-70
2022/12/29 04:28:41;;;;;;;38.10;5.88;;;;;;;;;;4923291;28;20041;-69
2022/12/29 04:31:09;;;;;;;36.40;5.53;;;;;;;;;;4922771;28;20390;-70
2022/12/29 04:33:34;;;;;;;54.40;6.90;;;;;;;;;;4923843;28;20467;-70
2022/12/29 04:35:59;;;;;;;35.95;5.43;;;;;;;;;;4923141;28;20592;-71
2022/12/29 04:38:24;;;;;;;36.40;5.95;;;;;;;;;;4923469;28;20038;-70
2022/12/29 04:40:50;;;;;;;35.60;5.57;;;;;;;;;;4923475;28;21675;-73
2022/12/29 04:43:16;;;;;;;43.47;5.97;;;;;;;;;;4922711;28;20657;-69
2022/12/29 04:45:48;;;;;;;44.33;6.65;;;;;;;;;;4923301;28;20498;-70
2022/12/29 04:48:17;;;;;;;41.45;6.32;;;;;;;;;;4922811;28;20220;-69
2022/12/29 04:50:43;;;;;;;38.10;5.78;;;;;;;;;;4904218;28;20041;-69
2022/12/29 04:53:10;;;;;;;46.50;6.05;;;;;;;;;;4923108;28;20632;-70
2022/12/29 04:55:36;;;;;;;38.92;6.93;;;;;;;;;;4922559;28;20031;-70
2022/12/29 04:58:01;;;;;;;48.83;6.40;;;;;;;;;;4922866;28;20295;-69
2022/12/29 05:00:26;;;;;;;43.15;6.82;;;;;;;;;;4921899;28;20459;-70
2022/12/29 05:02:54;;;;;;;38.92;6.55;;;;;;;;;;4922717;28;20036;-70
2022/12/29 05:05:26;;;;;;;42.42;6.40;;;;;;;;;;4922435;28;20089;-69
2022/12/29 05:07:54;;;;;;;40.42;6.82;;;;;;;;;;4905584;28;20214;-70
2022/12/29 05:10:19;;;;;;;42.42;6.60;;;;;;;;;;4922303;28;20434;-69
2022/12/29 05:12:45;;;;;;;44.42;6.40;;;;;;;;;;4925330;28;20161;-68
2022/12/29 05:15:11;;;;;;;50.80;8.30;;;;;;;;;;4941847;28;20559;-69
2022/12/29 05:17:37;;;;;;;54.65;7.43;;;;;;;;;;4924171;28;20050;-69
2022/12/29 05:20:03;;;;;;;45.63;7.22;;;;;;;;;;4940650;28;20035;-70
2022/12/29 05:22:28;;;;;;;47.20;5.80;;;;;;;;;;4941362;28;20415;-68
2022/12/29 05:24:53;;;;;;;46.33;7.03;;;;;;;;;;4941607;28;20030;-71
2022/12/29 05:27:18;;;;;;;37.05;6.55;;;;;;;;;;4940683;28;20026;-68
2022/12/29 05:29:44;;;;;;;38.20;5.38;;;;;;;;;;4941294;28;20521;-70
2022/12/29 05:32:09;;;;;;;41.83;6.57;;;;;;;;;;4940882;28;20030;-69
2022/12/29 05:34:34;;;;;;;41.33;6.38;;;;;;;;;;4924006;28;20027;-72
2022/12/29 05:37:01;;;;;;;44.10;7.18;;;;;;;;;;4922864;28;20108;-69
2022/12/29 05:39:29;;;;;;;42.03;5.70;;;;;;;;;;4924349;28;22630;-69
2022/12/29 05:41:54;;;;;;;45.65;6.28;;;;;;;;;;4940459;28;20031;-68
2022/12/29 05:44:19;;;;;;;43.67;7.07;;;;;;;;;;4941317;28;20545;-69
2022/12/29 05:46:45;;;;;;;44.58;6.30;;;;;;;;;;4939034;28;20279;-69
2022/12/29 05:49:13;;;;;;;45.83;6.93;;;;;;;;;;4939994;28;20031;-69
2022/12/29 05:51:38;;;;;;;43.92;6.60;;;;;;;;;;4906865;28;20714;-69
2022/12/29 05:54:04;;;;;;;50.08;7.78;;;;;;;;;;4940876;28;20375;-68
2022/12/29 05:56:32;;;;;;;48.95;7.80;;;;;;;;;;4939000;28;20484;-69
2022/12/29 05:58:57;;;;;;;54.97;7.32;;;;;;;;;;4940060;28;20053;-69
2022/12/29 06:01:25;;;;;;;57.25;9.35;;;;;;;;;;4940134;28;20300;-68
2022/12/29 06:03:50;;;;;;;53.25;8.43;;;;;;;;;;4923521;28;20047;-71
2022/12/29 06:06:15;;;;;;;59.00;8.43;;;;;;;;;;4940189;28;20042;-70
2022/12/29 06:08:41;;;;;;;56.08;8.43;;;;;;;;;;4941140;28;20556;-71
2022/12/29 06:11:06;;;;;;;54.53;7.95;;;;;;;;;;4923473;28;20039;-68
2022/12/29 06:13:34;;;;;;;62.67;8.30;;;;;;;;;;4922560;28;20248;-71
2022/12/29 06:15:59;;;;;;;57.95;10.00;;;;;;;;;;4939666;28;20199;-71
2022/12/29 06:18:25;;;;;;;60.67;8.32;;;;;;;;;;4940288;28;20031;-71
2022/12/29 06:20:50;;;;;;;48.90;7.28;;;;;;;;;;4939236;28;20039;-70
2022/12/29 06:23:18;;;;;;;56.45;8.63;;;;;;;;;;4940128;28;20034;-71
2022/12/29 06:25:43;;;;;;;42.50;6.40;;;;;;;;;;4922233;28;20031;-71
2022/12/29 06:28:10;;;;;;;44.35;6.93;;;;;;;;;;4940172;28;20038;-70
2022/12/29 06:30:35;;;;;;;42.53;6.07;;;;;;;;;;4940210;28;20458;-68
2022/12/29 06:33:00;;;;;;;46.15;6.55;;;;;;;;;;4940040;28;20450;-71
2022/12/29 06:35:26;;;;;;;43.85;6.53;;;;;;;;;;4939111;28;20063;-69
2022/12/29 06:37:54;;;;;;;42.50;6.43;;;;;;;;;;4922444;28;20095;-70
2022/12/29 06:40:19;;;;;;;44.70;6.60;;;;;;;;;;4939342;28;20042;-71
2022/12/29 06:42:45;;;;;;;45.55;7.28;;;;;;;;;;4939970;28;20347;-70
2022/12/29 06:45:10;;;;;;;55.90;7.97;;;;;;;;;;4939398;28;20542;-69
2022/12/29 06:47:38;;;;;;;55.30;9.15;;;;;;;;;;4989810;28;20038;-72
2022/12/29 06:50:04;;;;;;;49.05;7.80;;;;;;;;;;4988918;28;20034;-71
2022/12/29 06:52:29;;;;;;;51.03;7.63;;;;;;;;;;4939340;28;20036;-70
2022/12/29 06:54:55;;;;;;;59.78;7.78;;;;;;;;;;4939358;28;20029;-70
2022/12/29 06:57:23;;;;;;;58.20;7.93;;;;;;;;;;4940138;28;20027;-67
2022/12/29 06:59:48;;;;;;;53.25;8.93;;;;;;;;;;4989797;28;20749;-72
2022/12/29 07:02:14;;;;;;;52.55;7.13;;;;;;;;;;4941352;28;20070;-71
2022/12/29 07:04:40;;;;;;;59.60;7.30;;;;;;;;;;5008551;28;20324;-73
2022/12/29 07:07:05;;;;;;;50.90;7.72;;;;;;;;;;4940691;28;20027;-70
2022/12/29 07:09:31;;;;;;;52.85;7.47;;;;;;;;;;4923604;28;20508;-71
2022/12/29 07:11:57;;;;;;;57.50;7.90;;;;;;;;;;4906910;28;20062;-70
2022/12/29 07:14:24;;;;;;;50.55;7.43;;;;;;;;;;4889971;28;1087403;-70
2022/12/29 07:16:50;;;;;;;46.28;8.23;;;;;;;;;;4945461;28;20058;-71
2022/12/29 07:19:15;;;;;;;55.65;8.07;;;;;;;;;;4912920;28;20445;-70
2022/12/29 07:21:40;;;;;;;49.03;7.68;;;;;;;;;;4927982;28;20031;-68
2022/12/29 07:24:08;;;;;;;57.35;8.27;;;;;;;;;;4944174;28;20126;-70
2022/12/29 07:26:36;;;;;;;48.42;8.13;;;;;;;;;;4944198;28;20043;-69
2022/12/29 07:29:02;;;;;;;49.83;8.20;;;;;;;;;;4947207;28;20039;-68
2022/12/29 07:31:30;;;;;;;54.17;9.48;;;;;;;;;;4944255;28;20096;-69
2022/12/29 07:33:58;;;;;;;46.20;8.40;;;;;;;;;;4947683;28;20479;-71
2022/12/29 07:36:23;;;;;;;61.78;8.95;;;;;;;;;;4946522;28;20317;-73
2022/12/29 07:38:49;;;;;;;56.17;7.63;;;;;;;;;;4947909;28;20558;-70
2022/12/29 07:41:14;;;;;;;50.55;8.73;;;;;;;;;;4949454;28;20065;-70
2022/12/29 07:43:40;;;;;;;54.92;8.50;;;;;;;;;;4949445;28;20031;-70
2022/12/29 07:46:05;;;;;;;52.60;8.68;;;;;;;;;;4946132;28;20599;-69
2022/12/29 07:48:30;;;;;;;55.13;7.85;;;;;;;;;;4930699;28;20035;-70
2022/12/29 07:50:58;;;;;;;54.35;8.00;;;;;;;;;;4947163;28;20050;-69
2022/12/29 07:53:24;;;;;;;60.88;8.60;;;;;;;;;;4944369;28;20482;-71
2022/12/29 07:55:49;;;;;;;46.17;7.63;;;;;;;;;;4946454;28;20477;-70
2022/12/29 07:58:14;;;;;;;56.05;8.25;;;;;;;;;;4929348;28;20030;-70
2022/12/29 08:00:39;;;;;;;51.58;7.32;;;;;;;;;;4944528;28;20039;-70
2022/12/29 08:03:05;;;;;;;57.92;8.82;;;;;;;;;;4926443;28;20039;-69
2022/12/29 08:05:33;;;;;;;57.53;8.00;;;;;;;;;;4928911;28;20357;-69
2022/12/29 08:08:03;;;;;;;51.90;7.68;;;;;;;;;;4945414;28;20400;-70
2022/12/29 08:10:28;;;;;;;49.47;7.13;;;;;;;;;;4926362;28;22279;-69
2022/12/29 08:12:53;;;;;;;43.70;7.47;;;;;;;;;;4942064;28;20072;-72
2022/12/29 08:15:19;;;;;;;44.08;7.68;;;;;;;;;;4891351;28;20140;-69
2022/12/29 08:17:44;;;;;;;46.30;6.85;;;;;;;;;;4922982;28;20335;-69
2022/12/29 08:20:11;;;;;;;51.80;7.45;;;;;;;;;;4923393;28;20289;-70
2022/12/29 08:22:36;;;;;;;51.97;8.88;;;;;;;;;;4924087;28;20024;-69
2022/12/29 08:25:02;;;;;;;47.80;7.15;;;;;;;;;;4923690;28;20508;-68
2022/12/29 08:27:28;;;;;;;53.53;7.30;;;;;;;;;;4922908;28;20038;-69
2022/12/29 08:29:56;;;;;;;48.78;6.93;;;;;;;;;;4923825;28;20489;-68
2022/12/29 08:32:24;;;;;;;46.92;6.82;;;;;;;;;;4906820;28;20126;-71
2022/12/29 08:34:52;;;;;;;53.72;7.75;;;;;;;;;;4922905;28;20210;-73
2022/12/29 08:37:17;;;;;;;45.45;7.93;;;;;;;;;;4907186;28;20362;-70
2022/12/29 08:39:42;;;;;;;48.45;7.53;;;;;;;;;;4925488;28;20031;-70
2022/12/29 08:42:14;;;;;;;60.67;8.75;;;;;;;;;;4922457;28;20027;-70
2022/12/29 08:44:41;;;;;;;54.33;7.38;;;;;;;;;;4924429;28;20827;-71
2022/12/29 08:47:09;;;;;;;61.70;8.40;;;;;;;;;;4953281;28;20027;-73
2022/12/29 08:49:36;;;;;;;51.40;7.85;;;;;;;;;;4922746;28;20259;-73
2022/12/29 08:52:02;;;;;;;53.50;7.65;;;;;;;;;;4924562;28;20030;-71
2022/12/29 08:54:30;;;;;;;54.97;7.45;;;;;;;;;;4923588;28;20722;-72
2022/12/29 08:56:56;;;;;;;57.17;8.23;;;;;;;;;;4922578;28;20027;-73
2022/12/29 08:59:21;;;;;;;66.65;9.07;;;;;;;;;;4924904;28;21021;-73
2022/12/29 09:01:47;;;;;;;74.85;11.43;;;;;;;;;;4928915;28;20035;-72
2022/12/29 09:04:12;;;;;;;79.07;11.60;;;;;;;;;;4975421;28;20031;-74
2022/12/29 09:06:37;;;;;;;77.07;10.57;;;;;;;;;;4923125;28;20042;-72
2022/12/29 09:09:05;;;;;;;79.65;11.43;;;;;;;;;;4923949;28;20103;-73
2022/12/29 09:11:33;;;;;;;106.10;14.40;;;;;;;;;;4927076;28;20120;-72
2022/12/29 09:14:00;;;;;;;99.60;13.30;;;;;;;;;;4928776;28;20050;-69
2022/12/29 09:16:26;;;;;;;86.10;11.10;;;;;;;;;;4944091;28;20039;-73
2022/12/29 09:18:52;;;;;;;75.53;10.82;;;;;;;;;;4912446;28;20065;-71
2022/12/29 09:21:19;;;;;;;78.53;10.57;;;;;;;;;;4992294;28;20499;-72
2022/12/29 09:23:45;;;;;;;91.03;11.98;;;;;;;;;;4946611;28;20130;-73
2022/12/29 09:26:10;;;;;;;82.40;12.05;;;;;;;;;;4930685;28;20035;-72
2022/12/29 09:28:36;;;;;;;95.38;14.98;;;;;;;;;;4927202;28;20035;-73
2022/12/29 09:31:02;;;;;;;83.18;12.48;;;;;;;;;;4948419;28;20066;-71
2022/12/29 09:33:28;;;;;;;93.25;12.73;;;;;;;;;;4942403;28;20389;-71
2022/12/29 09:35:57;;;;;;;106.05;14.85;;;;;;;;;;4942554;28;20035;-72
2022/12/29 09:38:23;;;;;;;98.10;13.30;;;;;;;;;;4941254;28;20392;-72
2022/12/29 09:40:55;;;;;;;118.18;15.05;;;;;;;;;;4941620;28;20042;-71
2022/12/29 09:43:20;;;;;;;109.35;13.20;;;;;;;;;;4924421;28;20578;-72
2022/12/29 09:45:50;;;;;;;122.10;15.20;;;;;;;;;;4941678;28;20101;-71
2022/12/29 09:48:29;;;;;;;97.95;13.63;;;;;;;;;;4942963;28;20038;-70
2022/12/29 09:50:58;;;;;;;121.45;16.80;;;;;;;;;;4941692;28;20572;-70
2022/12/29 09:53:24;;;;;;;60.10;9.30;;;;;;;;;;4944691;28;20544;-71
2022/12/29 09:55:53;;;;;;;57.97;8.07;;;;;;;;;;4944012;28;20533;-71
2022/12/29 09:58:21;;;;;;;64.82;9.13;;;;;;;;;;4926963;28;20495;-72
2022/12/29 10:00:56;;;;;;;51.28;8.35;;;;;;;;;;4942074;28;20038;-71
2022/12/29 10:03:23;;;;;;;52.42;7.25;;;;;;;;;;4924627;28;20038;-72
2022/12/29 10:06:21;;;;;;;51.30;6.57;;;;;;;;;;4941173;28;20409;-71
2022/12/29 10:09:02;;;;;;;48.15;5.68;;;;;;;;;;4962961;28;20039;-70
2022/12/29 10:11:27;;;;;;;45.88;7.88;;;;;;;;;;4940743;28;20023;-72
2022/12/29 10:13:55;;;;;;;44.22;6.25;;;;;;;;;;4941641;28;20252;-71
2022/12/29 10:16:40;;;;;;;42.58;6.78;;;;;;;;;;4942356;28;20352;-71
2022/12/29 10:19:34;;;;;;;44.25;7.32;;;;;;;;;;4944018;28;20034;-72
2022/12/29 10:22:11;;;;;;;43.60;5.70;;;;;;;;;;4941189;28;20039;-71
2022/12/29 10:24:38;;;;;;;52.08;8.18;;;;;;;;;;4947046;28;20035;-71
2022/12/29 10:27:05;;;;;;;54.03;7.25;;;;;;;;;;4942695;28;20192;-72
2022/12/29 10:29:36;;;;;;;40.92;6.57;;;;;;;;;;4944071;28;20042;-70
2022/12/29 10:32:10;;;;;;;46.92;6.75;;;;;;;;;;4923861;28;20113;-72
2022/12/29 10:34:42;;;;;;;43.15;6.30;;;;;;;;;;4920288;28;20599;-71
2022/12/29 10:37:26;;;;;;;41.42;5.85;;;;;;;;;;4941039;28;20076;-72
2022/12/29 10:39:52;;;;;;;53.03;7.45;;;;;;;;;;4941468;28;20119;-71
2022/12/29 10:42:25;;;;;;;48.90;7.13;;;;;;;;;;4941341;28;20027;-71
2022/12/29 10:44:50;;;;;;;47.20;6.18;;;;;;;;;;4941289;28;20031;-71
2022/12/29 10:47:21;;;;;;;42.00;6.45;;;;;;;;;;4923396;28;20136;-70
2022/12/29 10:49:49;;;;;;;52.95;7.28;;;;;;;;;;4940506;28;20035;-71
2022/12/29 10:52:19;;;;;;;41.22;6.15;;;;;;;;;;4939266;28;20035;-72
2022/12/29 10:54:56;;;;;;;43.95;6.43;;;;;;;;;;4940729;28;20043;-71
2022/12/29 10:57:24;;;;;;;41.47;6.53;;;;;;;;;;4939946;28;20031;-71
2022/12/29 10:59:49;;;;;;;45.08;7.30;;;;;;;;;;4940162;28;20027;-71
2022/12/29 11:02:21;;;;;;;42.35;6.82;;;;;;;;;;4937536;28;20101;-70
2022/12/29 11:04:54;;;;;;;36.08;6.53;;;;;;;;;;4941505;28;20714;-71
2022/12/29 11:07:20;;;;;;;50.95;7.00;;;;;;;;;;4941631;28;20045;-71
2022/12/29 11:09:46;;;;;;;35.60;6.25;;;;;;;;;;4923862;28;20259;-71
2022/12/29 11:12:29;;;;;;;34.60;5.78;;;;;;;;;;4941469;28;20051;-70
2022/12/29 11:15:09;;;;;;;34.22;5.65;;;;;;;;;;4927143;28;20054;-70
2022/12/29 11:17:48;;;;;;;40.17;5.13;;;;;;;;;;4922231;28;20059;-72
2022/12/29 11:20:29;;;;;;;41.95;6.65;;;;;;;;;;4905354;28;20032;-71
2022/12/29 11:22:55;;;;;;;35.10;5.25;;;;;;;;;;4921929;28;20485;-70
2022/12/29 11:25:20;;;;;;;41.25;5.65;;;;;;;;;;4922022;28;20366;-71
2022/12/29 11:27:55;;;;;;;41.95;6.00;;;;;;;;;;4922105;28;20038;-72
2022/12/29 11:30:24;;;;;;;38.92;6.00;;;;;;;;;;4922391;28;20049;-71
2022/12/29 11:32:52;;;;;;;47.30;6.90;;;;;;;;;;4922993;28;20058;-71
2022/12/29 11:35:29;;;;;;;35.95;6.10;;;;;;;;;;4905781;28;20027;-71
2022/12/29 11:37:57;;;;;;;40.47;5.70;;;;;;;;;;4905559;28;20062;-72
2022/12/29 11:40:25;;;;;;;33.72;5.18;;;;;;;;;;4922212;28;20085;-71
2022/12/29 11:42:52;;;;;;;44.40;6.28;;;;;;;;;;4889988;28;20039;-70
2022/12/29 11:45:22;;;;;;;36.90;6.43;;;;;;;;;;4905093;28;20035;-71
2022/12/29 11:47:49;;;;;;;38.35;5.00;;;;;;;;;;4922457;28;20123;-71
2022/12/29 11:50:35;;;;;;;33.90;5.25;;;;;;;;;;4924998;28;20460;-71
2022/12/29 11:53:13;;;;;;;37.15;5.20;;;;;;;;;;4921011;28;20050;-71
2022/12/29 11:55:41;;;;;;;42.88;5.93;;;;;;;;;;4920732;28;20089;-70
2022/12/29 11:58:14;;;;;;;37.20;5.72;;;;;;;;;;4920643;28;20038;-70
2022/12/29 12:00:41;;;;;;;45.25;7.15;;;;;;;;;;4922814;28;20034;-69
2022/12/29 12:03:13;;;;;;;43.47;6.68;;;;;;;;;;4925058;28;20048;-71
2022/12/29 12:05:55;;;;;;;45.42;6.85;;;;;;;;;;4922450;28;20050;-72
2022/12/29 12:08:40;;;;;;;48.33;7.20;;;;;;;;;;4923642;28;20533;-70
2022/12/29 12:11:14;;;;;;;42.95;6.28;;;;;;;;;;4906338;28;20379;-71
2022/12/29 12:13:47;;;;;;;44.83;7.35;;;;;;;;;;4934007;28;20078;-70
2022/12/29 12:16:18;;;;;;;46.53;6.88;;;;;;;;;;4945953;28;20042;-71
2022/12/29 12:18:49;;;;;;;36.78;6.28;;;;;;;;;;4945918;28;20042;-71
2022/12/29 12:21:27;;;;;;;52.77;8.10;;;;;;;;;;4945728;28;20035;-70
2022/12/29 12:23:58;;;;;;;48.90;7.70;;;;;;;;;;4942611;28;20727;-70
2022/12/29 12:26:52;;;;;;;39.40;5.30;;;;;;;;;;4946716;28;20035;-70
2022/12/29 12:29:39;;;;;;;47.55;7.03;;;;;;;;;;4958009;28;20607;-71
2022/12/29 12:32:11;;;;;;;46.50;7.22;;;;;;;;;;4942610;28;20038;-71
2022/12/29 12:34:42;;;;;;;50.15;7.47;;;;;;;;;;4942335;28;20571;-71
2022/12/29 12:37:26;;;;;;;48.80;6.63;;;;;;;;;;4924760;28;20133;-70
2022/12/29 12:40:09;;;;;;;42.33;6.15;;;;;;;;;;4925076;28;20035;-70
2022/12/29 12:42:45;;;;;;;41.53;6.38;;;;;;;;;;4924197;28;20107;-70
2022/12/29 12:45:18;;;;;;;52.83;6.70;;;;;;;;;;4922678;28;20794;-70
2022/12/29 12:47:46;;;;;;;34.55;5.68;;;;;;;;;;4924833;28;20547;-70
2022/12/29 12:50:15;;;;;;;44.63;6.32;;;;;;;;;;4925602;28;20030;-71
2022/12/29 12:52:40;;;;;;;38.85;6.18;;;;;;;;;;4941981;28;20489;-71
2022/12/29 12:55:32;;;;;;;36.47;6.20;;;;;;;;;;4942233;28;20030;-71
2022/12/29 12:58:05;;;;;;;33.58;4.53;;;;;;;;;;4941521;28;20396;-71
2022/12/29 13:00:42;;;;;;;37.97;5.60;;;;;;;;;;4941867;28;20050;-71
2022/12/29 13:03:12;;;;;;;34.45;5.05;;;;;;;;;;4935752;28;20092;-71
2022/12/29 13:05:37;;;;;;;43.72;5.50;;;;;;;;;;4941414;28;20039;-71
2022/12/29 13:08:12;;;;;;;43.97;6.10;;;;;;;;;;4941728;28;20114;-71
2022/12/29 13:10:51;;;;;;;38.08;5.32;;;;;;;;;;4941309;28;20112;-70
2022/12/29 13:13:19;;;;;;;33.70;5.10;;;;;;;;;;4941959;28;20118;-70
2022/12/29 13:15:53;;;;;;;43.92;5.40;;;;;;;;;;4942250;28;20035;-70
2022/12/29 13:18:19;;;;;;;34.63;6.60;;;;;;;;;;4942086;28;20118;-70
2022/12/29 13:20:49;;;;;;;39.50;6.40;;;;;;;;;;4942000;28;20284;-71
2022/12/29 13:23:14;;;;;;;34.95;5.68;;;;;;;;;;4941789;28;20331;-71
2022/12/29 13:25:59;;;;;;;49.85;6.32;;;;;;;;;;4941879;28;20089;-70
2022/12/29 13:28:42;;;;;;;39.47;6.70;;;;;;;;;;4943544;28;20333;-71
2022/12/29 13:31:17;;;;;;;44.40;6.25;;;;;;;;;;4944026;28;20393;-70
2022/12/29 13:34:01;;;;;;;48.03;6.47;;;;;;;;;;4943914;28;20128;-70
2022/12/29 13:36:29;;;;;;;43.83;6.07;;;;;;;;;;4943773;28;20034;-71
2022/12/29 13:39:10;;;;;;;37.70;5.72;;;;;;;;;;4942967;28;20049;-70
2022/12/29 13:41:48;;;;;;;46.80;6.45;;;;;;;;;;4946621;28;20034;-74
2022/12/29 13:44:20;;;;;;;50.50;6.30;;;;;;;;;;4953763;28;20038;-75
2022/12/29 13:46:49;;;;;;;45.45;5.88;;;;;;;;;;4941696;28;20122;-74
2022/12/29 13:49:22;;;;;;;45.10;6.75;;;;;;;;;;4921367;28;20034;-73
2022/12/29 13:52:09;;;;;;;39.58;6.00;;;;;;;;;;4936435;28;20365;-75
2022/12/29 13:54:43;;;;;;;39.60;5.57;;;;;;;;;;4951484;28;20734;-75
2022/12/29 13:57:16;;;;;;;28.23;4.60;;;;;;;;;;4953009;28;20031;-74
2022/12/29 14:00:11;;;;;;;35.10;4.25;;;;;;;;;;4931290;28;20106;-73
2022/12/29 14:02:36;;;;;;;35.13;5.03;;;;;;;;;;4913720;28;20035;-75
2022/12/29 14:05:05;;;;;;;38.05;5.57;;;;;;;;;;4933418;28;20501;-74
2022/12/29 14:07:37;;;;;;;32.17;4.40;;;;;;;;;;4913967;28;20031;-74
2022/12/29 14:10:02;;;;;;;36.13;4.20;;;;;;;;;;4932856;28;20031;-75
2022/12/29 14:12:43;;;;;;;39.50;5.15;;;;;;;;;;4919989;28;20031;-75
2022/12/29 14:15:10;;;;;;;33.17;5.07;;;;;;;;;;4931888;28;20085;-75
2022/12/29 14:17:37;;;;;;;34.33;4.72;;;;;;;;;;4932893;28;20035;-75
2022/12/29 14:20:03;;;;;;;32.67;5.20;;;;;;;;;;4938001;28;20043;-75
2022/12/29 14:22:31;;;;;;;38.25;5.43;;;;;;;;;;4935010;28;20035;-74
2022/12/29 14:24:56;;;;;;;38.90;4.93;;;;;;;;;;4933712;28;20057;-74
2022/12/29 14:27:22;;;;;;;38.00;5.40;;;;;;;;;;4934219;28;20043;-74
2022/12/29 14:29:48;;;;;;;39.13;5.47;;;;;;;;;;4932957;28;20032;-74
2022/12/29 14:32:25;;;;;;;37.47;5.43;;;;;;;;;;4917049;28;20031;-74
2022/12/29 14:34:52;;;;;;;40.47;5.28;;;;;;;;;;4933449;28;20047;-74
2022/12/29 14:37:23;;;;;;;38.08;5.38;;;;;;;;;;4935732;28;20062;-76
2022/12/29 14:39:49;;;;;;;43.53;5.70;;;;;;;;;;4934141;28;20105;-75
2022/12/29 14:42:22;;;;;;;37.67;6.43;;;;;;;;;;4934235;28;20544;-74
2022/12/29 14:44:51;;;;;;;38.30;5.88;;;;;;;;;;4930763;28;20413;-74
2022/12/29 14:47:19;;;;;;;47.83;6.15;;;;;;;;;;4937783;28;22117;-74
2022/12/29 14:49:47;;;;;;;41.10;5.82;;;;;;;;;;4930126;28;20027;-75
2022/12/29 14:52:15;;;;;;;52.45;6.82;;;;;;;;;;4934426;28;20119;-76
2022/12/29 14:54:43;;;;;;;46.17;6.57;;;;;;;;;;4935595;28;20045;-76
2022/12/29 14:57:29;;;;;;;44.55;6.93;;;;;;;;;;4931326;28;20049;-75
2022/12/29 14:59:57;;;;;;;49.38;5.97;;;;;;;;;;4933732;28;20024;-74
2022/12/29 15:02:31;;;;;;;51.38;6.50;;;;;;;;;;4933861;28;20061;-75
2022/12/29 15:04:59;;;;;;;63.15;8.98;;;;;;;;;;4930179;28;20118;-76
2022/12/29 15:07:26;;;;;;;64.20;9.70;;;;;;;;;;4933616;28;20035;-75
2022/12/29 15:09:56;;;;;;;60.90;11.48;;;;;;;;;;4915523;28;20130;-75
2022/12/29 15:12:33;;;;;;;62.33;7.88;;;;;;;;;;4930196;28;20676;-76
2022/12/29 15:15:02;;;;;;;67.70;10.80;;;;;;;;;;4917660;28;20055;-74
2022/12/29 15:17:28;;;;;;;67.60;8.98;;;;;;;;;;4933453;28;20036;-74